sensor_id;sensor_type;location;lat;lon;timestamp;temperature;humidity
10437;DHT22;5265;50.006;9.202;2023-01-13T00:02:17;9.90;99.90
10437;DHT22;5265;50.006;9.202;2023-01-13T00:04:45;9.90;99.90
10437;DHT22;5265;50.006;9.202;2023-01-13T00:07:12;9.90;99.90
10437;DHT22;5265;50.006;9.202;2023-01-13T00:09:39;9.90;99.90
10437;DHT22;5265;50.006;9.202;2023-01-13T00:12:07;9.90;99.90
10437;DHT22;5265;50.006;9.202;2023-01-13T00:14:34;9.90;99.90
10437;DHT22;5265;50.006;9.202;2023-01-13T00:17:04;9.90;99.90
10437;DHT22;5265;50.006;9.202;2023-01-13T00:19:33;9.90;99.90
10437;DHT22;5265;50.006;9.202;2023-01-13T00:22:00;10.00;99.90
10437;DHT22;5265;50.006;9.202;2023-01-13T00:24:28;9.90;99.90
10437;DHT22;5265;50.006;9.202;2023-01-13T00:26:55;9.90;99.90
10437;DHT22;5265;50.006;9.202;2023-01-13T00:29:23;9.90;99.90
10437;DHT22;5265;50.006;9.202;2023-01-13T00:31:50;9.90;99.90
10437;DHT22;5265;50.006;9.202;2023-01-13T00:34:17;9.90;99.90
10437;DHT22;5265;50.006;9.202;2023-01-13T00:36:45;10.00;99.90
10437;DHT22;5265;50.006;9.202;2023-01-13T00:39:12;10.00;99.90
10437;DHT22;5265;50.006;9.202;2023-01-13T00:41:40;10.00;99.90
10437;DHT22;5265;50.006;9.202;2023-01-13T00:44:25;10.00;99.90
10437;DHT22;5265;50.006;9.202;2023-01-13T00:46:52;9.90;99.90
10437;DHT22;5265;50.006;9.202;2023-01-13T00:49:19;10.00;99.90
10437;DHT22;5265;50.006;9.202;2023-01-13T00:51:47;10.00;99.90
10437;DHT22;5265;50.006;9.202;2023-01-13T00:54:14;10.00;99.90
10437;DHT22;5265;50.006;9.202;2023-01-13T00:56:41;10.00;99.90
10437;DHT22;5265;50.006;9.202;2023-01-13T00:59:09;10.00;99.90
10437;DHT22;5265;50.006;9.202;2023-01-13T01:01:37;10.00;99.90
10437;DHT22;5265;50.006;9.202;2023-01-13T01:04:05;10.10;99.90
10437;DHT22;5265;50.006;9.202;2023-01-13T01:06:32;10.10;99.90
10437;DHT22;5265;50.006;9.202;2023-01-13T01:08:59;10.10;99.90
10437;DHT22;5265;50.006;9.202;2023-01-13T01:11:27;10.10;99.90
10437;DHT22;5265;50.006;9.202;2023-01-13T01:13:55;10.10;99.90
10437;DHT22;5265;50.006;9.202;2023-01-13T01:16:24;10.20;99.90
10437;DHT22;5265;50.006;9.202;2023-01-13T01:18:53;10.20;99.90
10437;DHT22;5265;50.006;9.202;2023-01-13T01:21:21;10.20;99.90
10437;DHT22;5265;50.006;9.202;2023-01-13T01:23:48;10.20;99.90
10437;DHT22;5265;50.006;9.202;2023-01-13T01:26:15;10.20;99.90
10437;DHT22;5265;50.006;9.202;2023-01-13T01:28:43;10.10;99.90
10437;DHT22;5265;50.006;9.202;2023-01-13T01:31:11;10.20;99.90
10437;DHT22;5265;50.006;9.202;2023-01-13T01:33:39;10.20;99.90
10437;DHT22;5265;50.006;9.202;2023-01-13T01:36:08;10.10;99.90
10437;DHT22;5265;50.006;9.202;2023-01-13T01:38:36;10.10;99.90
10437;DHT22;5265;50.006;9.202;2023-01-13T01:41:03;10.10;99.90
10437;DHT22;5265;50.006;9.202;2023-01-13T01:43:45;10.20;99.90
10437;DHT22;5265;50.006;9.202;2023-01-13T01:46:25;10.20;99.90
10437;DHT22;5265;50.006;9.202;2023-01-13T01:48:52;10.20;99.90
10437;DHT22;5265;50.006;9.202;2023-01-13T01:51:22;10.20;99.90
10437;DHT22;5265;50.006;9.202;2023-01-13T01:53:49;10.30;99.90
10437;DHT22;5265;50.006;9.202;2023-01-13T01:56:17;10.30;99.90
10437;DHT22;5265;50.006;9.202;2023-01-13T01:58:45;10.30;99.90
10437;DHT22;5265;50.006;9.202;2023-01-13T02:01:13;10.30;99.90
10437;DHT22;5265;50.006;9.202;2023-01-13T02:03:42;10.30;99.90
10437;DHT22;5265;50.006;9.202;2023-01-13T02:06:11;10.30;99.90
10437;DHT22;5265;50.006;9.202;2023-01-13T02:08:40;10.30;99.90
10437;DHT22;5265;50.006;9.202;2023-01-13T02:11:07;10.30;99.90
10437;DHT22;5265;50.006;9.202;2023-01-13T02:13:54;10.30;99.90
10437;DHT22;5265;50.006;9.202;2023-01-13T02:16:22;10.20;99.90
10437;DHT22;5265;50.006;9.202;2023-01-13T02:18:52;10.20;99.90
10437;DHT22;5265;50.006;9.202;2023-01-13T02:27:21;10.30;99.90
10437;DHT22;5265;50.006;9.202;2023-01-13T02:29:59;10.20;99.90
10437;DHT22;5265;50.006;9.202;2023-01-13T02:32:52;10.20;99.90
10437;DHT22;5265;50.006;9.202;2023-01-13T02:35:22;10.20;99.90
10437;DHT22;5265;50.006;9.202;2023-01-13T02:37:50;10.20;99.90
10437;DHT22;5265;50.006;9.202;2023-01-13T02:40:20;10.20;99.90
10437;DHT22;5265;50.006;9.202;2023-01-13T02:42:51;10.20;99.90
10437;DHT22;5265;50.006;9.202;2023-01-13T02:45:38;10.20;99.90
10437;DHT22;5265;50.006;9.202;2023-01-13T02:48:07;10.20;99.90
10437;DHT22;5265;50.006;9.202;2023-01-13T02:50:35;10.20;99.90
10437;DHT22;5265;50.006;9.202;2023-01-13T02:53:06;10.20;99.90
10437;DHT22;5265;50.006;9.202;2023-01-13T02:55:36;10.20;99.90
10437;DHT22;5265;50.006;9.202;2023-01-13T02:58:04;10.10;99.90
10437;DHT22;5265;50.006;9.202;2023-01-13T03:00:33;10.10;99.90
10437;DHT22;5265;50.006;9.202;2023-01-13T03:03:02;10.10;99.90
10437;DHT22;5265;50.006;9.202;2023-01-13T03:05:30;10.20;99.90
10437;DHT22;5265;50.006;9.202;2023-01-13T03:08:04;10.10;99.90
10437;DHT22;5265;50.006;9.202;2023-01-13T03:10:36;10.20;99.90
10437;DHT22;5265;50.006;9.202;2023-01-13T03:13:14;10.20;99.90
10437;DHT22;5265;50.006;9.202;2023-01-13T03:15:46;10.30;99.90
10437;DHT22;5265;50.006;9.202;2023-01-13T03:18:24;10.20;99.90
10437;DHT22;5265;50.006;9.202;2023-01-13T03:20:55;10.30;99.90
10437;DHT22;5265;50.006;9.202;2023-01-13T03:23:26;10.30;99.90
10437;DHT22;5265;50.006;9.202;2023-01-13T03:25:59;10.20;99.90
10437;DHT22;5265;50.006;9.202;2023-01-13T03:28:28;10.30;99.90
10437;DHT22;5265;50.006;9.202;2023-01-13T03:30:59;10.30;99.90
10437;DHT22;5265;50.006;9.202;2023-01-13T03:33:32;10.30;99.90
10437;DHT22;5265;50.006;9.202;2023-01-13T03:36:01;10.30;99.90
10437;DHT22;5265;50.006;9.202;2023-01-13T03:38:29;10.30;99.90
10437;DHT22;5265;50.006;9.202;2023-01-13T03:40:58;10.40;99.90
10437;DHT22;5265;50.006;9.202;2023-01-13T03:43:27;10.40;99.90
10437;DHT22;5265;50.006;9.202;2023-01-13T03:46:14;10.30;99.90
10437;DHT22;5265;50.006;9.202;2023-01-13T03:48:44;10.30;99.90
10437;DHT22;5265;50.006;9.202;2023-01-13T03:51:12;10.40;99.90
10437;DHT22;5265;50.006;9.202;2023-01-13T03:53:42;10.30;99.90
10437;DHT22;5265;50.006;9.202;2023-01-13T03:56:12;10.40;99.90
10437;DHT22;5265;50.006;9.202;2023-01-13T03:58:41;10.30;99.90
10437;DHT22;5265;50.006;9.202;2023-01-13T04:01:10;10.30;99.90
10437;DHT22;5265;50.006;9.202;2023-01-13T04:03:41;10.30;99.90
10437;DHT22;5265;50.006;9.202;2023-01-13T04:06:13;10.30;99.90
10437;DHT22;5265;50.006;9.202;2023-01-13T04:08:43;10.30;99.90
10437;DHT22;5265;50.006;9.202;2023-01-13T04:11:13;10.30;99.90
10437;DHT22;5265;50.006;9.202;2023-01-13T04:13:41;10.30;99.90
10437;DHT22;5265;50.006;9.202;2023-01-13T04:16:09;10.20;99.90
10437;DHT22;5265;50.006;9.202;2023-01-13T04:18:37;10.20;99.90
10437;DHT22;5265;50.006;9.202;2023-01-13T04:21:05;10.20;99.90
10437;DHT22;5265;50.006;9.202;2023-01-13T04:23:34;10.20;99.90
10437;DHT22;5265;50.006;9.202;2023-01-13T04:26:01;10.20;99.90
10437;DHT22;5265;50.006;9.202;2023-01-13T04:28:28;10.30;99.90
10437;DHT22;5265;50.006;9.202;2023-01-13T04:30:55;10.20;99.90
10437;DHT22;5265;50.006;9.202;2023-01-13T04:33:22;10.30;99.90
10437;DHT22;5265;50.006;9.202;2023-01-13T04:35:49;10.20;99.90
10437;DHT22;5265;50.006;9.202;2023-01-13T04:38:17;10.20;99.90
10437;DHT22;5265;50.006;9.202;2023-01-13T04:40:46;10.20;99.90
10437;DHT22;5265;50.006;9.202;2023-01-13T04:43:14;10.20;99.90
10437;DHT22;5265;50.006;9.202;2023-01-13T04:45:41;10.20;99.90
10437;DHT22;5265;50.006;9.202;2023-01-13T04:48:08;10.20;99.90
10437;DHT22;5265;50.006;9.202;2023-01-13T04:50:35;10.20;99.90
10437;DHT22;5265;50.006;9.202;2023-01-13T04:53:03;10.20;99.90
10437;DHT22;5265;50.006;9.202;2023-01-13T04:55:30;10.20;99.90
10437;DHT22;5265;50.006;9.202;2023-01-13T04:58:01;10.20;99.90
10437;DHT22;5265;50.006;9.202;2023-01-13T05:00:29;10.20;99.90
10437;DHT22;5265;50.006;9.202;2023-01-13T05:02:56;10.20;99.90
10437;DHT22;5265;50.006;9.202;2023-01-13T05:05:24;10.20;99.90
10437;DHT22;5265;50.006;9.202;2023-01-13T05:07:52;10.20;99.90
10437;DHT22;5265;50.006;9.202;2023-01-13T05:10:19;10.30;99.90
10437;DHT22;5265;50.006;9.202;2023-01-13T05:12:46;10.30;99.90
10437;DHT22;5265;50.006;9.202;2023-01-13T05:15:32;10.30;99.90
10437;DHT22;5265;50.006;9.202;2023-01-13T05:18:16;10.30;99.90
10437;DHT22;5265;50.006;9.202;2023-01-13T05:20:44;10.30;99.90
10437;DHT22;5265;50.006;9.202;2023-01-13T05:23:11;10.30;99.90
10437;DHT22;5265;50.006;9.202;2023-01-13T05:25:56;10.30;99.90
10437;DHT22;5265;50.006;9.202;2023-01-13T05:28:23;10.30;99.90
10437;DHT22;5265;50.006;9.202;2023-01-13T05:30:51;10.20;99.90
10437;DHT22;5265;50.006;9.202;2023-01-13T05:33:19;10.30;99.90
10437;DHT22;5265;50.006;9.202;2023-01-13T05:35:46;10.30;99.90
10437;DHT22;5265;50.006;9.202;2023-01-13T05:38:14;10.30;99.90
10437;DHT22;5265;50.006;9.202;2023-01-13T05:40:41;10.30;99.90
10437;DHT22;5265;50.006;9.202;2023-01-13T05:43:26;10.30;99.90
10437;DHT22;5265;50.006;9.202;2023-01-13T05:45:57;10.30;99.90
10437;DHT22;5265;50.006;9.202;2023-01-13T05:48:25;10.30;99.90
10437;DHT22;5265;50.006;9.202;2023-01-13T05:50:53;10.20;99.90
10437;DHT22;5265;50.006;9.202;2023-01-13T05:53:20;10.20;99.90
10437;DHT22;5265;50.006;9.202;2023-01-13T05:55:48;10.20;99.90
10437;DHT22;5265;50.006;9.202;2023-01-13T05:58:15;10.10;99.90
10437;DHT22;5265;50.006;9.202;2023-01-13T06:00:43;10.00;99.90
10437;DHT22;5265;50.006;9.202;2023-01-13T06:03:12;10.00;99.90
10437;DHT22;5265;50.006;9.202;2023-01-13T06:05:39;10.00;99.90
10437;DHT22;5265;50.006;9.202;2023-01-13T06:08:07;9.90;99.90
10437;DHT22;5265;50.006;9.202;2023-01-13T06:10:34;9.80;99.90
10437;DHT22;5265;50.006;9.202;2023-01-13T06:13:01;9.60;99.90
10437;DHT22;5265;50.006;9.202;2023-01-13T06:15:29;9.60;99.90
10437;DHT22;5265;50.006;9.202;2023-01-13T06:17:56;9.50;99.90
10437;DHT22;5265;50.006;9.202;2023-01-13T06:20:24;9.60;99.90
10437;DHT22;5265;50.006;9.202;2023-01-13T06:22:51;9.50;99.90
10437;DHT22;5265;50.006;9.202;2023-01-13T06:25:25;9.40;99.90
10437;DHT22;5265;50.006;9.202;2023-01-13T06:27:55;9.50;99.90
10437;DHT22;5265;50.006;9.202;2023-01-13T06:30:22;9.10;99.90
10437;DHT22;5265;50.006;9.202;2023-01-13T06:32:50;8.60;99.90
10437;DHT22;5265;50.006;9.202;2023-01-13T06:35:18;8.50;99.90
10437;DHT22;5265;50.006;9.202;2023-01-13T06:37:48;8.40;99.90
10437;DHT22;5265;50.006;9.202;2023-01-13T06:40:16;8.30;99.90
10437;DHT22;5265;50.006;9.202;2023-01-13T06:42:43;8.20;99.90
10437;DHT22;5265;50.006;9.202;2023-01-13T06:45:28;8.20;99.90
10437;DHT22;5265;50.006;9.202;2023-01-13T06:47:56;8.10;99.90
10437;DHT22;5265;50.006;9.202;2023-01-13T06:50:24;8.10;99.90
10437;DHT22;5265;50.006;9.202;2023-01-13T06:52:53;8.10;99.90
10437;DHT22;5265;50.006;9.202;2023-01-13T06:55:20;8.10;99.90
10437;DHT22;5265;50.006;9.202;2023-01-13T06:57:47;8.10;99.90
10437;DHT22;5265;50.006;9.202;2023-01-13T07:00:15;8.10;99.90
10437;DHT22;5265;50.006;9.202;2023-01-13T07:02:42;8.10;99.90
10437;DHT22;5265;50.006;9.202;2023-01-13T07:05:08;8.10;99.90
10437;DHT22;5265;50.006;9.202;2023-01-13T07:07:36;8.10;99.90
10437;DHT22;5265;50.006;9.202;2023-01-13T07:10:05;8.10;99.90
10437;DHT22;5265;50.006;9.202;2023-01-13T07:12:34;8.10;99.90
10437;DHT22;5265;50.006;9.202;2023-01-13T07:15:22;8.10;99.90
10437;DHT22;5265;50.006;9.202;2023-01-13T07:17:48;8.00;99.90
10437;DHT22;5265;50.006;9.202;2023-01-13T07:20:16;8.10;99.90
10437;DHT22;5265;50.006;9.202;2023-01-13T07:22:43;8.10;99.90
10437;DHT22;5265;50.006;9.202;2023-01-13T07:25:12;8.10;99.90
10437;DHT22;5265;50.006;9.202;2023-01-13T07:27:38;8.10;99.90
10437;DHT22;5265;50.006;9.202;2023-01-13T07:30:06;8.10;99.90
10437;DHT22;5265;50.006;9.202;2023-01-13T07:32:33;8.10;99.90
10437;DHT22;5265;50.006;9.202;2023-01-13T07:35:00;8.10;99.90
10437;DHT22;5265;50.006;9.202;2023-01-13T07:37:31;8.10;99.90
10437;DHT22;5265;50.006;9.202;2023-01-13T07:39:58;8.10;99.90
10437;DHT22;5265;50.006;9.202;2023-01-13T07:42:27;8.10;99.90
10437;DHT22;5265;50.006;9.202;2023-01-13T07:45:11;8.10;99.90
10437;DHT22;5265;50.006;9.202;2023-01-13T07:47:39;8.10;99.90
10437;DHT22;5265;50.006;9.202;2023-01-13T07:50:07;8.00;99.90
10437;DHT22;5265;50.006;9.202;2023-01-13T07:52:34;8.00;99.90
10437;DHT22;5265;50.006;9.202;2023-01-13T07:55:01;8.10;99.90
10437;DHT22;5265;50.006;9.202;2023-01-13T07:57:29;8.00;99.90
10437;DHT22;5265;50.006;9.202;2023-01-13T07:59:56;8.00;99.90
10437;DHT22;5265;50.006;9.202;2023-01-13T08:02:24;8.00;99.90
10437;DHT22;5265;50.006;9.202;2023-01-13T08:04:51;8.00;99.90
10437;DHT22;5265;50.006;9.202;2023-01-13T08:07:18;8.00;99.90
10437;DHT22;5265;50.006;9.202;2023-01-13T08:09:45;8.00;99.90
10437;DHT22;5265;50.006;9.202;2023-01-13T08:12:13;7.90;99.90
10437;DHT22;5265;50.006;9.202;2023-01-13T08:14:59;7.90;99.90
10437;DHT22;5265;50.006;9.202;2023-01-13T08:17:26;7.90;99.90
10437;DHT22;5265;50.006;9.202;2023-01-13T08:19:53;7.90;99.90
10437;DHT22;5265;50.006;9.202;2023-01-13T08:22:20;7.80;99.90
10437;DHT22;5265;50.006;9.202;2023-01-13T08:24:48;7.90;99.90
10437;DHT22;5265;50.006;9.202;2023-01-13T08:27:15;7.90;99.90
10437;DHT22;5265;50.006;9.202;2023-01-13T08:29:42;7.80;99.90
10437;DHT22;5265;50.006;9.202;2023-01-13T08:32:11;7.90;99.90
10437;DHT22;5265;50.006;9.202;2023-01-13T08:34:38;7.90;99.90
10437;DHT22;5265;50.006;9.202;2023-01-13T08:37:05;7.90;99.90
10437;DHT22;5265;50.006;9.202;2023-01-13T08:39:32;7.90;99.90
10437;DHT22;5265;50.006;9.202;2023-01-13T08:42:00;7.90;99.90
10437;DHT22;5265;50.006;9.202;2023-01-13T08:44:28;8.00;99.90
10437;DHT22;5265;50.006;9.202;2023-01-13T08:46:56;8.00;99.90
10437;DHT22;5265;50.006;9.202;2023-01-13T08:49:25;8.00;99.90
10437;DHT22;5265;50.006;9.202;2023-01-13T08:51:52;8.00;99.90
10437;DHT22;5265;50.006;9.202;2023-01-13T08:54:19;8.20;99.90
10437;DHT22;5265;50.006;9.202;2023-01-13T08:56:46;8.10;99.90
10437;DHT22;5265;50.006;9.202;2023-01-13T08:59:14;8.10;99.90
10437;DHT22;5265;50.006;9.202;2023-01-13T09:01:42;8.10;99.90
10437;DHT22;5265;50.006;9.202;2023-01-13T09:04:11;8.00;99.90
10437;DHT22;5265;50.006;9.202;2023-01-13T09:06:41;8.00;99.90
10437;DHT22;5265;50.006;9.202;2023-01-13T09:09:09;8.00;99.90
10437;DHT22;5265;50.006;9.202;2023-01-13T09:11:36;8.00;99.90
10437;DHT22;5265;50.006;9.202;2023-01-13T09:14:23;8.10;99.90
10437;DHT22;5265;50.006;9.202;2023-01-13T09:16:51;8.00;99.90
10437;DHT22;5265;50.006;9.202;2023-01-13T09:19:18;8.10;99.90
10437;DHT22;5265;50.006;9.202;2023-01-13T09:21:46;8.10;99.90
10437;DHT22;5265;50.006;9.202;2023-01-13T09:24:13;8.10;99.90
10437;DHT22;5265;50.006;9.202;2023-01-13T09:26:40;8.20;99.90
10437;DHT22;5265;50.006;9.202;2023-01-13T09:29:07;8.20;99.90
10437;DHT22;5265;50.006;9.202;2023-01-13T09:31:35;8.20;99.90
10437;DHT22;5265;50.006;9.202;2023-01-13T09:34:02;8.30;99.90
10437;DHT22;5265;50.006;9.202;2023-01-13T09:36:49;8.40;99.90
10437;DHT22;5265;50.006;9.202;2023-01-13T09:39:16;8.40;99.90
10437;DHT22;5265;50.006;9.202;2023-01-13T09:41:44;8.50;99.90
10437;DHT22;5265;50.006;9.202;2023-01-13T09:44:31;8.50;99.90
10437;DHT22;5265;50.006;9.202;2023-01-13T09:47:03;8.50;99.90
10437;DHT22;5265;50.006;9.202;2023-01-13T09:49:33;8.60;99.90
10437;DHT22;5265;50.006;9.202;2023-01-13T09:52:05;8.60;99.90
10437;DHT22;5265;50.006;9.202;2023-01-13T09:54:36;8.60;99.90
10437;DHT22;5265;50.006;9.202;2023-01-13T09:57:06;8.70;99.90
10437;DHT22;5265;50.006;9.202;2023-01-13T09:59:34;8.70;99.90
10437;DHT22;5265;50.006;9.202;2023-01-13T10:02:09;8.80;99.90
10437;DHT22;5265;50.006;9.202;2023-01-13T10:04:39;8.80;99.90
10437;DHT22;5265;50.006;9.202;2023-01-13T10:07:10;9.00;99.90
10437;DHT22;5265;50.006;9.202;2023-01-13T10:09:42;9.00;99.90
10437;DHT22;5265;50.006;9.202;2023-01-13T10:12:10;9.00;99.90
10437;DHT22;5265;50.006;9.202;2023-01-13T10:14:57;9.10;99.90
10437;DHT22;5265;50.006;9.202;2023-01-13T10:17:25;9.10;99.90
10437;DHT22;5265;50.006;9.202;2023-01-13T10:19:54;9.10;99.90
10437;DHT22;5265;50.006;9.202;2023-01-13T10:22:40;9.10;99.90
10437;DHT22;5265;50.006;9.202;2023-01-13T10:25:27;9.10;99.90
10437;DHT22;5265;50.006;9.202;2023-01-13T10:28:00;9.10;99.90
10437;DHT22;5265;50.006;9.202;2023-01-13T10:30:32;9.10;99.90
10437;DHT22;5265;50.006;9.202;2023-01-13T10:33:00;9.10;99.90
10437;DHT22;5265;50.006;9.202;2023-01-13T10:35:50;9.10;99.90
10437;DHT22;5265;50.006;9.202;2023-01-13T10:38:20;9.10;99.90
10437;DHT22;5265;50.006;9.202;2023-01-13T10:40:48;9.10;99.90
10437;DHT22;5265;50.006;9.202;2023-01-13T10:43:15;9.10;99.90
10437;DHT22;5265;50.006;9.202;2023-01-13T10:45:47;9.10;99.90
10437;DHT22;5265;50.006;9.202;2023-01-13T10:48:17;9.10;99.90
10437;DHT22;5265;50.006;9.202;2023-01-13T10:50:44;9.10;99.90
10437;DHT22;5265;50.006;9.202;2023-01-13T10:53:17;9.10;99.90
10437;DHT22;5265;50.006;9.202;2023-01-13T10:55:58;9.20;99.90
10437;DHT22;5265;50.006;9.202;2023-01-13T10:58:25;9.10;99.90
10437;DHT22;5265;50.006;9.202;2023-01-13T11:00:58;9.10;99.90
10437;DHT22;5265;50.006;9.202;2023-01-13T11:03:28;9.10;99.90
10437;DHT22;5265;50.006;9.202;2023-01-13T11:06:00;9.10;99.90
10437;DHT22;5265;50.006;9.202;2023-01-13T11:08:28;9.10;99.90
10437;DHT22;5265;50.006;9.202;2023-01-13T11:10:58;9.10;99.90
10437;DHT22;5265;50.006;9.202;2023-01-13T11:13:27;9.20;99.90
10437;DHT22;5265;50.006;9.202;2023-01-13T11:15:57;9.20;99.90
10437;DHT22;5265;50.006;9.202;2023-01-13T11:18:29;9.30;99.90
10437;DHT22;5265;50.006;9.202;2023-01-13T11:20:58;9.30;99.90
10437;DHT22;5265;50.006;9.202;2023-01-13T11:23:28;9.30;99.90
10437;DHT22;5265;50.006;9.202;2023-01-13T11:25:57;9.30;99.90
10437;DHT22;5265;50.006;9.202;2023-01-13T11:28:38;9.30;99.90
10437;DHT22;5265;50.006;9.202;2023-01-13T11:31:09;9.30;99.90
10437;DHT22;5265;50.006;9.202;2023-01-13T11:33:40;9.30;99.90
10437;DHT22;5265;50.006;9.202;2023-01-13T11:36:10;9.20;99.90
10437;DHT22;5265;50.006;9.202;2023-01-13T11:38:40;9.30;99.90
10437;DHT22;5265;50.006;9.202;2023-01-13T11:41:12;9.30;99.90
10437;DHT22;5265;50.006;9.202;2023-01-13T11:43:44;9.30;99.90
10437;DHT22;5265;50.006;9.202;2023-01-13T11:46:13;9.30;99.90
10437;DHT22;5265;50.006;9.202;2023-01-13T11:48:41;9.30;99.90
10437;DHT22;5265;50.006;9.202;2023-01-13T11:51:10;9.40;99.90
10437;DHT22;5265;50.006;9.202;2023-01-13T11:53:49;9.50;99.90
10437;DHT22;5265;50.006;9.202;2023-01-13T11:59:10;9.50;99.90
